sensor_id;sensor_type;location;lat;lon;timestamp;P1;durP1;ratioP1;P2;durP2;ratioP2
43807;SDS011;29438;50.664;10.098;2022-09-13T00:00:33;12.88;;;7.07;;
43807;SDS011;29438;50.664;10.098;2022-09-13T00:02:59;15.75;;;7.70;;
43807;SDS011;29438;50.664;10.098;2022-09-13T00:05:25;12.55;;;7.70;;
43807;SDS011;29438;50.664;10.098;2022-09-13T00:07:51;12.32;;;7.47;;
43807;SDS011;29438;50.664;10.098;2022-09-13T00:10:17;12.63;;;7.28;;
43807;SDS011;29438;50.664;10.098;2022-09-13T00:12:43;11.27;;;7.05;;
43807;SDS011;29438;50.664;10.098;2022-09-13T00:15:08;12.50;;;7.43;;
43807;SDS011;29438;50.664;10.098;2022-09-13T00:17:34;14.65;;;7.70;;
43807;SDS011;29438;50.664;10.098;2022-09-13T00:20:00;12.45;;;7.45;;
43807;SDS011;29438;50.664;10.098;2022-09-13T00:22:26;12.98;;;7.13;;
43807;SDS011;29438;50.664;10.098;2022-09-13T00:24:51;11.18;;;7.25;;
43807;SDS011;29438;50.664;10.098;2022-09-13T00:27:17;11.10;;;6.78;;
43807;SDS011;29438;50.664;10.098;2022-09-13T00:29:43;11.48;;;6.65;;
43807;SDS011;29438;50.664;10.098;2022-09-13T00:32:08;9.68;;;6.05;;
43807;SDS011;29438;50.664;10.098;2022-09-13T00:34:34;10.77;;;6.35;;
43807;SDS011;29438;50.664;10.098;2022-09-13T00:36:59;10.82;;;6.32;;
43807;SDS011;29438;50.664;10.098;2022-09-13T00:39:25;11.70;;;6.50;;
43807;SDS011;29438;50.664;10.098;2022-09-13T00:41:51;10.80;;;6.72;;
43807;SDS011;29438;50.664;10.098;2022-09-13T00:47:18;10.52;;;6.53;;
43807;SDS011;29438;50.664;10.098;2022-09-13T00:49:49;12.75;;;6.90;;
43807;SDS011;29438;50.664;10.098;2022-09-13T00:52:19;10.70;;;6.60;;
43807;SDS011;29438;50.664;10.098;2022-09-13T00:54:54;10.82;;;6.70;;
43807;SDS011;29438;50.664;10.098;2022-09-13T00:57:24;12.02;;;6.70;;
43807;SDS011;29438;50.664;10.098;2022-09-13T01:00:12;10.60;;;6.53;;
43807;SDS011;29438;50.664;10.098;2022-09-13T01:02:59;11.63;;;6.68;;
43807;SDS011;29438;50.664;10.098;2022-09-13T01:05:32;13.23;;;7.05;;
43807;SDS011;29438;50.664;10.098;2022-09-13T01:08:02;10.60;;;6.38;;
43807;SDS011;29438;50.664;10.098;2022-09-13T01:10:34;12.05;;;6.88;;
43807;SDS011;29438;50.664;10.098;2022-09-13T01:13:10;9.90;;;6.05;;
43807;SDS011;29438;50.664;10.098;2022-09-13T01:15:39;12.07;;;6.57;;
43807;SDS011;29438;50.664;10.098;2022-09-13T01:18:05;12.90;;;7.00;;
43807;SDS011;29438;50.664;10.098;2022-09-13T01:23:42;10.70;;;6.38;;
43807;SDS011;29438;50.664;10.098;2022-09-13T01:40:27;10.98;;;6.32;;
43807;SDS011;29438;50.664;10.098;2022-09-13T01:43:22;12.07;;;6.95;;
43807;SDS011;29438;50.664;10.098;2022-09-13T01:46:08;10.65;;;6.10;;
43807;SDS011;29438;50.664;10.098;2022-09-13T01:48:54;11.65;;;6.70;;
43807;SDS011;29438;50.664;10.098;2022-09-13T01:51:44;11.32;;;6.85;;
43807;SDS011;29438;50.664;10.098;2022-09-13T01:56:59;12.35;;;6.60;;
43807;SDS011;29438;50.664;10.098;2022-09-13T02:02:08;12.35;;;6.88;;
43807;SDS011;29438;50.664;10.098;2022-09-13T02:04:42;11.77;;;6.30;;
43807;SDS011;29438;50.664;10.098;2022-09-13T02:07:15;11.32;;;6.68;;
43807;SDS011;29438;50.664;10.098;2022-09-13T02:09:45;11.68;;;6.70;;
43807;SDS011;29438;50.664;10.098;2022-09-13T02:12:18;12.20;;;6.82;;
43807;SDS011;29438;50.664;10.098;2022-09-13T02:14:50;11.32;;;6.50;;
43807;SDS011;29438;50.664;10.098;2022-09-13T02:17:21;13.32;;;6.85;;
43807;SDS011;29438;50.664;10.098;2022-09-13T02:19:56;10.50;;;6.15;;
43807;SDS011;29438;50.664;10.098;2022-09-13T02:22:24;11.38;;;6.70;;
43807;SDS011;29438;50.664;10.098;2022-09-13T02:25:04;12.48;;;6.88;;
43807;SDS011;29438;50.664;10.098;2022-09-13T02:27:34;11.30;;;6.53;;
43807;SDS011;29438;50.664;10.098;2022-09-13T02:30:06;11.90;;;6.82;;
43807;SDS011;29438;50.664;10.098;2022-09-13T02:32:37;11.65;;;6.78;;
43807;SDS011;29438;50.664;10.098;2022-09-13T02:37:45;11.52;;;6.72;;
43807;SDS011;29438;50.664;10.098;2022-09-13T02:40:20;11.85;;;6.88;;
43807;SDS011;29438;50.664;10.098;2022-09-13T02:45:51;12.43;;;6.85;;
43807;SDS011;29438;50.664;10.098;2022-09-13T02:48:59;12.40;;;6.85;;
43807;SDS011;29438;50.664;10.098;2022-09-13T02:54:48;11.60;;;6.63;;
43807;SDS011;29438;50.664;10.098;2022-09-13T02:57:25;11.45;;;6.38;;
43807;SDS011;29438;50.664;10.098;2022-09-13T02:59:55;11.00;;;6.20;;
43807;SDS011;29438;50.664;10.098;2022-09-13T03:02:21;10.68;;;6.38;;
43807;SDS011;29438;50.664;10.098;2022-09-13T03:04:51;10.60;;;6.30;;
43807;SDS011;29438;50.664;10.098;2022-09-13T03:07:17;10.52;;;6.28;;
43807;SDS011;29438;50.664;10.098;2022-09-13T03:09:57;9.98;;;5.88;;
43807;SDS011;29438;50.664;10.098;2022-09-13T03:20:37;11.20;;;6.50;;
43807;SDS011;29438;50.664;10.098;2022-09-13T03:23:19;11.52;;;6.68;;
43807;SDS011;29438;50.664;10.098;2022-09-13T03:28:36;10.80;;;5.85;;
43807;SDS011;29438;50.664;10.098;2022-09-13T03:31:17;11.45;;;6.30;;
43807;SDS011;29438;50.664;10.098;2022-09-13T03:33:56;10.95;;;6.28;;
43807;SDS011;29438;50.664;10.098;2022-09-13T03:38:59;12.38;;;6.38;;
43807;SDS011;29438;50.664;10.098;2022-09-13T03:41:35;10.43;;;6.07;;
43807;SDS011;29438;50.664;10.098;2022-09-13T03:44:07;10.52;;;5.70;;
43807;SDS011;29438;50.664;10.098;2022-09-13T03:46:41;10.52;;;6.35;;
43807;SDS011;29438;50.664;10.098;2022-09-13T03:49:12;10.70;;;6.25;;
43807;SDS011;29438;50.664;10.098;2022-09-13T03:51:39;12.70;;;6.85;;
43807;SDS011;29438;50.664;10.098;2022-09-13T03:54:09;10.02;;;5.93;;
43807;SDS011;29438;50.664;10.098;2022-09-13T03:57:16;9.80;;;5.45;;
43807;SDS011;29438;50.664;10.098;2022-09-13T03:59:46;12.45;;;6.93;;
43807;SDS011;29438;50.664;10.098;2022-09-13T04:02:13;10.13;;;6.53;;
43807;SDS011;29438;50.664;10.098;2022-09-13T04:04:40;11.77;;;6.35;;
43807;SDS011;29438;50.664;10.098;2022-09-13T04:07:07;12.48;;;6.70;;
43807;SDS011;29438;50.664;10.098;2022-09-13T04:09:34;9.02;;;5.70;;
43807;SDS011;29438;50.664;10.098;2022-09-13T04:12:00;10.00;;;6.25;;
43807;SDS011;29438;50.664;10.098;2022-09-13T04:14:26;11.07;;;6.07;;
43807;SDS011;29438;50.664;10.098;2022-09-13T04:16:52;11.60;;;5.75;;
43807;SDS011;29438;50.664;10.098;2022-09-13T04:19:19;9.32;;;5.80;;
43807;SDS011;29438;50.664;10.098;2022-09-13T04:21:48;9.75;;;5.70;;
43807;SDS011;29438;50.664;10.098;2022-09-13T04:24:15;9.18;;;5.32;;
43807;SDS011;29438;50.664;10.098;2022-09-13T04:26:41;9.98;;;5.35;;
43807;SDS011;29438;50.664;10.098;2022-09-13T04:29:07;8.05;;;5.18;;
43807;SDS011;29438;50.664;10.098;2022-09-13T04:31:32;8.52;;;5.53;;
43807;SDS011;29438;50.664;10.098;2022-09-13T04:33:58;9.68;;;5.28;;
43807;SDS011;29438;50.664;10.098;2022-09-13T04:36:24;9.77;;;5.43;;
43807;SDS011;29438;50.664;10.098;2022-09-13T04:38:50;9.07;;;5.35;;
43807;SDS011;29438;50.664;10.098;2022-09-13T04:41:15;8.60;;;5.15;;
43807;SDS011;29438;50.664;10.098;2022-09-13T04:43:41;10.38;;;5.60;;
43807;SDS011;29438;50.664;10.098;2022-09-13T04:46:07;9.68;;;5.80;;
43807;SDS011;29438;50.664;10.098;2022-09-13T04:48:32;11.32;;;5.82;;
43807;SDS011;29438;50.664;10.098;2022-09-13T04:51:02;8.57;;;5.10;;
43807;SDS011;29438;50.664;10.098;2022-09-13T04:53:29;8.75;;;5.32;;
43807;SDS011;29438;50.664;10.098;2022-09-13T04:56:01;8.90;;;5.25;;
43807;SDS011;29438;50.664;10.098;2022-09-13T04:58:28;9.77;;;6.37;;
43807;SDS011;29438;50.664;10.098;2022-09-13T05:00:59;8.77;;;5.53;;
43807;SDS011;29438;50.664;10.098;2022-09-13T05:03:28;10.57;;;5.80;;
43807;SDS011;29438;50.664;10.098;2022-09-13T05:05:54;9.18;;;5.40;;
43807;SDS011;29438;50.664;10.098;2022-09-13T05:08:19;9.18;;;5.60;;
43807;SDS011;29438;50.664;10.098;2022-09-13T05:10:45;9.13;;;5.95;;
43807;SDS011;29438;50.664;10.098;2022-09-13T05:13:11;10.98;;;6.45;;
43807;SDS011;29438;50.664;10.098;2022-09-13T05:15:36;10.15;;;6.13;;
43807;SDS011;29438;50.664;10.098;2022-09-13T05:18:02;10.52;;;5.97;;
43807;SDS011;29438;50.664;10.098;2022-09-13T05:20:27;11.50;;;6.53;;
43807;SDS011;29438;50.664;10.098;2022-09-13T05:22:54;11.00;;;6.55;;
43807;SDS011;29438;50.664;10.098;2022-09-13T05:25:19;10.95;;;6.55;;
43807;SDS011;29438;50.664;10.098;2022-09-13T05:27:45;9.98;;;6.30;;
43807;SDS011;29438;50.664;10.098;2022-09-13T05:30:11;9.90;;;5.97;;
43807;SDS011;29438;50.664;10.098;2022-09-13T05:32:36;10.48;;;6.20;;
43807;SDS011;29438;50.664;10.098;2022-09-13T05:35:02;9.60;;;5.90;;
43807;SDS011;29438;50.664;10.098;2022-09-13T05:37:28;8.65;;;5.50;;
43807;SDS011;29438;50.664;10.098;2022-09-13T05:39:53;11.07;;;5.53;;
43807;SDS011;29438;50.664;10.098;2022-09-13T05:42:19;7.30;;;4.72;;
43807;SDS011;29438;50.664;10.098;2022-09-13T05:44:44;7.63;;;5.00;;
43807;SDS011;29438;50.664;10.098;2022-09-13T05:47:11;10.73;;;5.63;;
43807;SDS011;29438;50.664;10.098;2022-09-13T05:49:37;9.18;;;5.90;;
43807;SDS011;29438;50.664;10.098;2022-09-13T05:52:03;8.35;;;5.43;;
43807;SDS011;29438;50.664;10.098;2022-09-13T05:54:28;8.30;;;5.60;;
43807;SDS011;29438;50.664;10.098;2022-09-13T05:56:55;9.15;;;5.55;;
43807;SDS011;29438;50.664;10.098;2022-09-13T05:59:21;9.18;;;5.32;;
43807;SDS011;29438;50.664;10.098;2022-09-13T06:01:47;9.15;;;5.60;;
43807;SDS011;29438;50.664;10.098;2022-09-13T06:04:12;9.88;;;5.72;;
43807;SDS011;29438;50.664;10.098;2022-09-13T06:06:38;10.73;;;5.55;;
43807;SDS011;29438;50.664;10.098;2022-09-13T06:09:04;10.25;;;5.70;;
43807;SDS011;29438;50.664;10.098;2022-09-13T06:11:32;9.45;;;5.80;;
43807;SDS011;29438;50.664;10.098;2022-09-13T06:13:58;10.00;;;6.50;;
43807;SDS011;29438;50.664;10.098;2022-09-13T06:16:23;10.73;;;6.47;;
43807;SDS011;29438;50.664;10.098;2022-09-13T06:18:49;9.13;;;5.78;;
43807;SDS011;29438;50.664;10.098;2022-09-13T06:21:16;11.68;;;6.72;;
43807;SDS011;29438;50.664;10.098;2022-09-13T06:23:47;8.75;;;5.85;;
43807;SDS011;29438;50.664;10.098;2022-09-13T06:26:17;10.23;;;6.43;;
43807;SDS011;29438;50.664;10.098;2022-09-13T06:28:49;9.85;;;6.22;;
43807;SDS011;29438;50.664;10.098;2022-09-13T06:31:16;10.68;;;6.60;;
43807;SDS011;29438;50.664;10.098;2022-09-13T06:33:43;10.20;;;6.43;;
43807;SDS011;29438;50.664;10.098;2022-09-13T06:36:11;10.95;;;6.55;;
43807;SDS011;29438;50.664;10.098;2022-09-13T06:38:44;8.77;;;5.95;;
43807;SDS011;29438;50.664;10.098;2022-09-13T06:41:11;10.27;;;5.95;;
43807;SDS011;29438;50.664;10.098;2022-09-13T06:43:38;8.73;;;6.05;;
43807;SDS011;29438;50.664;10.098;2022-09-13T06:46:06;9.27;;;6.10;;
43807;SDS011;29438;50.664;10.098;2022-09-13T06:48:38;10.85;;;6.07;;
43807;SDS011;29438;50.664;10.098;2022-09-13T06:51:07;10.18;;;6.13;;
43807;SDS011;29438;50.664;10.098;2022-09-13T06:53:34;11.55;;;6.63;;
43807;SDS011;29438;50.664;10.098;2022-09-13T06:58:32;10.93;;;6.70;;
43807;SDS011;29438;50.664;10.098;2022-09-13T07:03:36;11.45;;;7.05;;
43807;SDS011;29438;50.664;10.098;2022-09-13T07:06:17;11.40;;;7.40;;
43807;SDS011;29438;50.664;10.098;2022-09-13T07:08:44;13.10;;;7.70;;
43807;SDS011;29438;50.664;10.098;2022-09-13T07:11:11;12.77;;;7.55;;
43807;SDS011;29438;50.664;10.098;2022-09-13T07:13:38;11.40;;;7.55;;
43807;SDS011;29438;50.664;10.098;2022-09-13T07:16:05;12.98;;;7.43;;
43807;SDS011;29438;50.664;10.098;2022-09-13T07:18:32;12.15;;;7.60;;
43807;SDS011;29438;50.664;10.098;2022-09-13T07:20:59;12.80;;;7.63;;
43807;SDS011;29438;50.664;10.098;2022-09-13T07:23:29;12.50;;;7.50;;
43807;SDS011;29438;50.664;10.098;2022-09-13T07:25:56;12.13;;;7.75;;
43807;SDS011;29438;50.664;10.098;2022-09-13T07:28:26;11.82;;;8.05;;
43807;SDS011;29438;50.664;10.098;2022-09-13T07:30:53;13.00;;;8.35;;
43807;SDS011;29438;50.664;10.098;2022-09-13T07:33:19;14.98;;;9.50;;
43807;SDS011;29438;50.664;10.098;2022-09-13T07:35:44;12.73;;;8.35;;
43807;SDS011;29438;50.664;10.098;2022-09-13T07:38:10;12.93;;;8.13;;
43807;SDS011;29438;50.664;10.098;2022-09-13T07:40:35;12.95;;;8.07;;
43807;SDS011;29438;50.664;10.098;2022-09-13T07:43:01;12.73;;;7.80;;
43807;SDS011;29438;50.664;10.098;2022-09-13T07:45:26;13.23;;;7.65;;
43807;SDS011;29438;50.664;10.098;2022-09-13T07:47:52;13.00;;;8.15;;
43807;SDS011;29438;50.664;10.098;2022-09-13T07:50:18;12.18;;;7.20;;
43807;SDS011;29438;50.664;10.098;2022-09-13T07:52:44;13.82;;;7.55;;
43807;SDS011;29438;50.664;10.098;2022-09-13T07:55:09;10.65;;;6.85;;
43807;SDS011;29438;50.664;10.098;2022-09-13T07:57:34;10.55;;;7.30;;
43807;SDS011;29438;50.664;10.098;2022-09-13T08:00:00;11.07;;;7.00;;
43807;SDS011;29438;50.664;10.098;2022-09-13T08:02:26;12.00;;;7.85;;
43807;SDS011;29438;50.664;10.098;2022-09-13T08:04:52;10.50;;;7.10;;
43807;SDS011;29438;50.664;10.098;2022-09-13T08:07:17;11.23;;;7.18;;
43807;SDS011;29438;50.664;10.098;2022-09-13T08:09:43;12.90;;;7.65;;
43807;SDS011;29438;50.664;10.098;2022-09-13T08:12:08;11.93;;;7.07;;
43807;SDS011;29438;50.664;10.098;2022-09-13T08:14:34;11.57;;;7.05;;
43807;SDS011;29438;50.664;10.098;2022-09-13T08:16:59;10.55;;;6.90;;
43807;SDS011;29438;50.664;10.098;2022-09-13T08:19:26;12.98;;;7.65;;
43807;SDS011;29438;50.664;10.098;2022-09-13T08:21:51;10.95;;;6.63;;
43807;SDS011;29438;50.664;10.098;2022-09-13T08:24:17;10.55;;;6.80;;
43807;SDS011;29438;50.664;10.098;2022-09-13T08:26:45;10.65;;;7.28;;
43807;SDS011;29438;50.664;10.098;2022-09-13T08:29:12;9.82;;;6.00;;
43807;SDS011;29438;50.664;10.098;2022-09-13T08:31:38;10.52;;;6.70;;
43807;SDS011;29438;50.664;10.098;2022-09-13T08:34:05;9.52;;;5.90;;
43807;SDS011;29438;50.664;10.098;2022-09-13T08:36:34;9.63;;;6.45;;
43807;SDS011;29438;50.664;10.098;2022-09-13T08:38:59;9.45;;;6.28;;
43807;SDS011;29438;50.664;10.098;2022-09-13T08:46:47;8.70;;;5.95;;
43807;SDS011;29438;50.664;10.098;2022-09-13T08:49:23;8.68;;;6.10;;
43807;SDS011;29438;50.664;10.098;2022-09-13T08:52:04;6.93;;;5.50;;
43807;SDS011;29438;50.664;10.098;2022-09-13T08:54:38;9.00;;;4.97;;
43807;SDS011;29438;50.664;10.098;2022-09-13T08:57:09;6.93;;;5.13;;
43807;SDS011;29438;50.664;10.098;2022-09-13T09:05:03;8.00;;;5.40;;
43807;SDS011;29438;50.664;10.098;2022-09-13T09:07:37;7.57;;;5.20;;
43807;SDS011;29438;50.664;10.098;2022-09-13T09:10:11;8.30;;;5.35;;
43807;SDS011;29438;50.664;10.098;2022-09-13T09:12:42;6.63;;;4.93;;
43807;SDS011;29438;50.664;10.098;2022-09-13T09:15:21;6.68;;;5.15;;
43807;SDS011;29438;50.664;10.098;2022-09-13T09:20:41;7.00;;;4.97;;
43807;SDS011;29438;50.664;10.098;2022-09-13T09:23:16;7.10;;;4.95;;
43807;SDS011;29438;50.664;10.098;2022-09-13T09:25:44;7.45;;;5.07;;
43807;SDS011;29438;50.664;10.098;2022-09-13T09:28:14;9.43;;;5.30;;
43807;SDS011;29438;50.664;10.098;2022-09-13T09:36:02;7.22;;;5.10;;
43807;SDS011;29438;50.664;10.098;2022-09-13T09:38:38;7.53;;;5.20;;
43807;SDS011;29438;50.664;10.098;2022-09-13T09:41:17;7.93;;;5.50;;
43807;SDS011;29438;50.664;10.098;2022-09-13T09:46:36;7.30;;;5.50;;
43807;SDS011;29438;50.664;10.098;2022-09-13T09:49:06;7.15;;;5.10;;
43807;SDS011;29438;50.664;10.098;2022-09-13T09:52:15;7.35;;;4.90;;
43807;SDS011;29438;50.664;10.098;2022-09-13T09:54:45;7.00;;;5.30;;
43807;SDS011;29438;50.664;10.098;2022-09-13T09:57:13;8.57;;;5.38;;
43807;SDS011;29438;50.664;10.098;2022-09-13T09:59:39;7.15;;;5.20;;
43807;SDS011;29438;50.664;10.098;2022-09-13T10:02:13;7.15;;;5.05;;
43807;SDS011;29438;50.664;10.098;2022-09-13T10:04:41;7.45;;;5.07;;
43807;SDS011;29438;50.664;10.098;2022-09-13T10:07:17;5.80;;;4.60;;
43807;SDS011;29438;50.664;10.098;2022-09-13T10:09:53;8.65;;;5.20;;
43807;SDS011;29438;50.664;10.098;2022-09-13T10:12:26;5.80;;;4.55;;
43807;SDS011;29438;50.664;10.098;2022-09-13T10:15:02;6.38;;;4.55;;
43807;SDS011;29438;50.664;10.098;2022-09-13T10:17:30;6.75;;;4.43;;
43807;SDS011;29438;50.664;10.098;2022-09-13T10:22:30;5.63;;;4.53;;
43807;SDS011;29438;50.664;10.098;2022-09-13T10:27:55;6.30;;;4.10;;
43807;SDS011;29438;50.664;10.098;2022-09-13T10:30:34;5.93;;;4.25;;
43807;SDS011;29438;50.664;10.098;2022-09-13T10:36:14;5.45;;;3.63;;
43807;SDS011;29438;50.664;10.098;2022-09-13T10:38:47;4.20;;;3.40;;
43807;SDS011;29438;50.664;10.098;2022-09-13T10:41:25;5.72;;;4.32;;
43807;SDS011;29438;50.664;10.098;2022-09-13T10:43:56;4.70;;;3.65;;
43807;SDS011;29438;50.664;10.098;2022-09-13T10:46:23;4.20;;;3.38;;
43807;SDS011;29438;50.664;10.098;2022-09-13T10:48:49;2.63;;;1.70;;
43807;SDS011;29438;50.664;10.098;2022-09-13T10:51:27;4.63;;;1.60;;
43807;SDS011;29438;50.664;10.098;2022-09-13T10:56:47;1.25;;;0.60;;
43807;SDS011;29438;50.664;10.098;2022-09-13T10:59:15;2.38;;;0.63;;
43807;SDS011;29438;50.664;10.098;2022-09-13T11:09:32;0.90;;;0.50;;
43807;SDS011;29438;50.664;10.098;2022-09-13T11:12:42;1.40;;;0.60;;
43807;SDS011;29438;50.664;10.098;2022-09-13T11:15:16;1.60;;;0.75;;
43807;SDS011;29438;50.664;10.098;2022-09-13T11:17:53;2.08;;;1.00;;
43807;SDS011;29438;50.664;10.098;2022-09-13T11:20:44;2.97;;;1.38;;
43807;SDS011;29438;50.664;10.098;2022-09-13T11:37:32;1.00;;;0.60;;
43807;SDS011;29438;50.664;10.098;2022-09-13T11:46:08;2.90;;;1.25;;
43807;SDS011;29438;50.664;10.098;2022-09-13T11:48:39;1.75;;;1.20;;
43807;SDS011;29438;50.664;10.098;2022-09-13T11:54:21;2.10;;;1.30;;
43807;SDS011;29438;50.664;10.098;2022-09-13T11:57:10;3.40;;;1.33;;
43807;SDS011;29438;50.664;10.098;2022-09-13T11:59:44;1.95;;;1.00;;
43807;SDS011;29438;50.664;10.098;2022-09-13T12:02:17;1.90;;;1.27;;
43807;SDS011;29438;50.664;10.098;2022-09-13T12:05:06;2.22;;;1.15;;
43807;SDS011;29438;50.664;10.098;2022-09-13T12:07:35;1.95;;;1.00;;
43807;SDS011;29438;50.664;10.098;2022-09-13T12:10:13;2.42;;;1.50;;
43807;SDS011;29438;50.664;10.098;2022-09-13T12:12:42;1.73;;;1.20;;
43807;SDS011;29438;50.664;10.098;2022-09-13T12:15:24;3.33;;;1.30;;
43807;SDS011;29438;50.664;10.098;2022-09-13T12:18:03;1.88;;;1.00;;
43807;SDS011;29438;50.664;10.098;2022-09-13T12:20:49;2.35;;;1.05;;
43807;SDS011;29438;50.664;10.098;2022-09-13T12:23:26;3.78;;;1.25;;
43807;SDS011;29438;50.664;10.098;2022-09-13T12:26:01;3.33;;;1.40;;
43807;SDS011;29438;50.664;10.098;2022-09-13T12:31:01;2.63;;;1.55;;
43807;SDS011;29438;50.664;10.098;2022-09-13T12:33:31;2.80;;;1.65;;
43807;SDS011;29438;50.664;10.098;2022-09-13T12:39:05;2.63;;;1.38;;
43807;SDS011;29438;50.664;10.098;2022-09-13T12:42:13;2.38;;;1.15;;
43807;SDS011;29438;50.664;10.098;2022-09-13T12:45:05;2.30;;;1.20;;
43807;SDS011;29438;50.664;10.098;2022-09-13T12:48:03;2.03;;;1.20;;
43807;SDS011;29438;50.664;10.098;2022-09-13T12:53:48;1.90;;;1.00;;
43807;SDS011;29438;50.664;10.098;2022-09-13T12:56:41;2.97;;;1.30;;
43807;SDS011;29438;50.664;10.098;2022-09-13T12:59:34;2.00;;;0.93;;
43807;SDS011;29438;50.664;10.098;2022-09-13T13:02:31;2.95;;;1.00;;
43807;SDS011;29438;50.664;10.098;2022-09-13T13:05:02;2.58;;;1.10;;
43807;SDS011;29438;50.664;10.098;2022-09-13T13:07:32;2.22;;;1.10;;
43807;SDS011;29438;50.664;10.098;2022-09-13T13:10:01;2.40;;;1.50;;
43807;SDS011;29438;50.664;10.098;2022-09-13T13:15:04;2.10;;;1.00;;
43807;SDS011;29438;50.664;10.098;2022-09-13T13:17:50;1.92;;;1.35;;
43807;SDS011;29438;50.664;10.098;2022-09-13T13:23:26;1.77;;;1.10;;
43807;SDS011;29438;50.664;10.098;2022-09-13T13:25:59;2.00;;;1.00;;
43807;SDS011;29438;50.664;10.098;2022-09-13T13:33:53;3.03;;;1.23;;
43807;SDS011;29438;50.664;10.098;2022-09-13T13:36:24;2.42;;;1.10;;
43807;SDS011;29438;50.664;10.098;2022-09-13T13:41:53;3.42;;;1.30;;
43807;SDS011;29438;50.664;10.098;2022-09-13T13:59:51;1.40;;;0.80;;
43807;SDS011;29438;50.664;10.098;2022-09-13T14:02:21;2.47;;;1.20;;
43807;SDS011;29438;50.664;10.098;2022-09-13T14:05:04;2.03;;;1.33;;
43807;SDS011;29438;50.664;10.098;2022-09-13T14:10:13;3.65;;;1.05;;
43807;SDS011;29438;50.664;10.098;2022-09-13T14:12:55;2.15;;;1.30;;
43807;SDS011;29438;50.664;10.098;2022-09-13T14:21:08;2.75;;;1.17;;
43807;SDS011;29438;50.664;10.098;2022-09-13T14:23:46;5.40;;;1.65;;
43807;SDS011;29438;50.664;10.098;2022-09-13T14:26:12;5.13;;;1.50;;
43807;SDS011;29438;50.664;10.098;2022-09-13T14:28:37;3.33;;;1.30;;
43807;SDS011;29438;50.664;10.098;2022-09-13T14:31:04;2.22;;;1.40;;
43807;SDS011;29438;50.664;10.098;2022-09-13T14:33:33;1.65;;;1.08;;
43807;SDS011;29438;50.664;10.098;2022-09-13T14:36:03;2.95;;;1.33;;
43807;SDS011;29438;50.664;10.098;2022-09-13T14:38:45;2.10;;;1.50;;
43807;SDS011;29438;50.664;10.098;2022-09-13T14:41:16;1.85;;;1.20;;
43807;SDS011;29438;50.664;10.098;2022-09-13T14:43:44;2.22;;;1.00;;
43807;SDS011;29438;50.664;10.098;2022-09-13T14:48:52;1.58;;;0.90;;
43807;SDS011;29438;50.664;10.098;2022-09-13T14:53:50;2.17;;;1.05;;
43807;SDS011;29438;50.664;10.098;2022-09-13T14:56:27;2.63;;;1.23;;
43807;SDS011;29438;50.664;10.098;2022-09-13T14:59:00;1.42;;;0.80;;
43807;SDS011;29438;50.664;10.098;2022-09-13T15:01:28;1.55;;;0.90;;
43807;SDS011;29438;50.664;10.098;2022-09-13T15:04:00;1.70;;;1.00;;
43807;SDS011;29438;50.664;10.098;2022-09-13T15:06:28;1.60;;;0.93;;
43807;SDS011;29438;50.664;10.098;2022-09-13T15:08:58;2.08;;;0.93;;
43807;SDS011;29438;50.664;10.098;2022-09-13T15:11:40;1.70;;;1.10;;
43807;SDS011;29438;50.664;10.098;2022-09-13T15:14:24;2.45;;;0.85;;
43807;SDS011;29438;50.664;10.098;2022-09-13T15:17:00;2.50;;;1.10;;
43807;SDS011;29438;50.664;10.098;2022-09-13T15:22:50;3.10;;;1.08;;
43807;SDS011;29438;50.664;10.098;2022-09-13T15:24:57;1.65;;;0.90;;
43807;SDS011;29438;50.664;10.098;2022-09-13T15:27:26;2.22;;;1.00;;
43807;SDS011;29438;50.664;10.098;2022-09-13T15:29:56;3.45;;;1.00;;
43807;SDS011;29438;50.664;10.098;2022-09-13T15:35:15;2.88;;;1.60;;
43807;SDS011;29438;50.664;10.098;2022-09-13T15:37:57;5.55;;;3.13;;
43807;SDS011;29438;50.664;10.098;2022-09-13T15:43:07;3.50;;;1.40;;
43807;SDS011;29438;50.664;10.098;2022-09-13T15:45:33;1.55;;;1.15;;
43807;SDS011;29438;50.664;10.098;2022-09-13T15:47:58;1.67;;;1.10;;
43807;SDS011;29438;50.664;10.098;2022-09-13T15:50:25;1.77;;;0.88;;
43807;SDS011;29438;50.664;10.098;2022-09-13T15:52:54;1.80;;;0.80;;
43807;SDS011;29438;50.664;10.098;2022-09-13T15:55:21;1.52;;;0.68;;
43807;SDS011;29438;50.664;10.098;2022-09-13T15:57:47;1.13;;;0.80;;
43807;SDS011;29438;50.664;10.098;2022-09-13T16:00:13;2.60;;;1.10;;
43807;SDS011;29438;50.664;10.098;2022-09-13T16:02:40;1.95;;;1.25;;
43807;SDS011;29438;50.664;10.098;2022-09-13T16:05:06;1.80;;;1.13;;
43807;SDS011;29438;50.664;10.098;2022-09-13T16:07:32;2.78;;;1.42;;
43807;SDS011;29438;50.664;10.098;2022-09-13T16:09:58;1.83;;;1.30;;
43807;SDS011;29438;50.664;10.098;2022-09-13T16:12:25;2.22;;;1.25;;
43807;SDS011;29438;50.664;10.098;2022-09-13T16:14:51;2.20;;;0.98;;
43807;SDS011;29438;50.664;10.098;2022-09-13T16:17:22;1.73;;;0.90;;
43807;SDS011;29438;50.664;10.098;2022-09-13T16:19:49;2.95;;;1.25;;
43807;SDS011;29438;50.664;10.098;2022-09-13T16:22:15;1.65;;;0.95;;
43807;SDS011;29438;50.664;10.098;2022-09-13T16:24:40;2.00;;;1.10;;
43807;SDS011;29438;50.664;10.098;2022-09-13T16:27:06;1.45;;;0.90;;
43807;SDS011;29438;50.664;10.098;2022-09-13T16:29:33;1.77;;;0.88;;
43807;SDS011;29438;50.664;10.098;2022-09-13T16:31:58;1.40;;;0.90;;
43807;SDS011;29438;50.664;10.098;2022-09-13T16:34:25;3.75;;;1.25;;
43807;SDS011;29438;50.664;10.098;2022-09-13T16:36:51;2.20;;;1.17;;
43807;SDS011;29438;50.664;10.098;2022-09-13T16:39:17;2.20;;;1.25;;
43807;SDS011;29438;50.664;10.098;2022-09-13T16:41:43;2.08;;;1.10;;
43807;SDS011;29438;50.664;10.098;2022-09-13T16:44:08;2.03;;;1.05;;
43807;SDS011;29438;50.664;10.098;2022-09-13T16:46:34;2.75;;;1.17;;
43807;SDS011;29438;50.664;10.098;2022-09-13T16:49:00;1.80;;;0.95;;
43807;SDS011;29438;50.664;10.098;2022-09-13T16:51:25;2.67;;;0.88;;
43807;SDS011;29438;50.664;10.098;2022-09-13T16:53:51;1.90;;;1.20;;
43807;SDS011;29438;50.664;10.098;2022-09-13T16:56:18;1.92;;;1.15;;
43807;SDS011;29438;50.664;10.098;2022-09-13T16:58:46;3.38;;;1.20;;
43807;SDS011;29438;50.664;10.098;2022-09-13T17:01:12;2.63;;;1.15;;
43807;SDS011;29438;50.664;10.098;2022-09-13T17:03:40;1.50;;;1.13;;
43807;SDS011;29438;50.664;10.098;2022-09-13T17:06:06;4.80;;;1.40;;
43807;SDS011;29438;50.664;10.098;2022-09-13T17:08:34;3.45;;;1.27;;
43807;SDS011;29438;50.664;10.098;2022-09-13T17:11:04;2.38;;;1.45;;
43807;SDS011;29438;50.664;10.098;2022-09-13T17:13:32;3.28;;;1.50;;
43807;SDS011;29438;50.664;10.098;2022-09-13T17:15:57;2.80;;;1.23;;
43807;SDS011;29438;50.664;10.098;2022-09-13T17:18:23;2.97;;;1.40;;
43807;SDS011;29438;50.664;10.098;2022-09-13T17:20:49;3.28;;;1.50;;
43807;SDS011;29438;50.664;10.098;2022-09-13T17:23:15;2.90;;;1.20;;
43807;SDS011;29438;50.664;10.098;2022-09-13T17:25:46;1.90;;;1.20;;
43807;SDS011;29438;50.664;10.098;2022-09-13T17:28:13;2.60;;;1.30;;
43807;SDS011;29438;50.664;10.098;2022-09-13T17:30:42;3.38;;;1.45;;
43807;SDS011;29438;50.664;10.098;2022-09-13T17:33:09;2.92;;;1.23;;
43807;SDS011;29438;50.664;10.098;2022-09-13T17:35:36;3.58;;;1.40;;
43807;SDS011;29438;50.664;10.098;2022-09-13T17:38:02;2.88;;;1.70;;
43807;SDS011;29438;50.664;10.098;2022-09-13T17:40:28;2.50;;;1.30;;
43807;SDS011;29438;50.664;10.098;2022-09-13T17:42:55;3.05;;;1.40;;
43807;SDS011;29438;50.664;10.098;2022-09-13T17:45:21;1.70;;;1.25;;